createdAt,value
2017-06-05T00:00:02.469Z,11.3
2017-06-05T00:05:02.722Z,11.3
2017-06-05T00:10:03.072Z,11.3
2017-06-05T00:15:02.397Z,11.3
2017-06-05T00:20:02.737Z,11.1
2017-06-05T00:25:03.067Z,11.0
2017-06-05T00:30:02.329Z,11.1
2017-06-05T00:35:02.695Z,10.8
2017-06-05T00:40:03.043Z,10.6
2017-06-05T00:45:02.342Z,10.3
2017-06-05T00:50:02.689Z,10.1
2017-06-05T00:55:03.013Z,10.1
2017-06-05T01:00:02.357Z,10.1
2017-06-05T01:05:02.728Z,10.1
2017-06-05T01:10:03.145Z,10.3
2017-06-05T01:15:02.456Z,10.1
2017-06-05T01:20:02.809Z,10.3
2017-06-05T01:25:03.083Z,10.3
2017-06-05T01:30:02.398Z,10.1
2017-06-05T01:35:02.808Z,10.3
2017-06-05T01:40:03.139Z,10.3
2017-06-05T01:45:02.412Z,10.3
2017-06-05T01:50:02.698Z,10.3
2017-06-05T01:55:03.058Z,10.3
2017-06-05T02:00:02.396Z,10.1
2017-06-05T02:05:02.870Z,10.1
2017-06-05T02:10:03.250Z,10.1
2017-06-05T02:15:02.608Z,10.0
2017-06-05T02:20:03.029Z,10.0
2017-06-05T02:25:02.439Z,10.0
2017-06-05T02:30:02.747Z,10.0
2017-06-05T02:35:03.098Z,10.1
2017-06-05T02:40:02.417Z,10.1
2017-06-05T02:45:02.800Z,10.0
2017-06-05T02:50:03.167Z,9.8
2017-06-05T02:55:02.490Z,9.6
2017-06-05T03:00:02.773Z,9.6
2017-06-05T03:05:03.088Z,9.5
2017-06-05T03:10:02.429Z,9.6
2017-06-05T03:15:02.817Z,9.6
2017-06-05T03:20:03.203Z,9.6
2017-06-05T03:25:02.650Z,9.6
2017-06-05T03:30:03.011Z,9.8
2017-06-05T03:35:02.453Z,9.8
2017-06-05T03:40:02.842Z,10.1
2017-06-05T03:45:03.216Z,10.1
2017-06-05T03:50:02.522Z,10.0
2017-06-05T03:55:02.895Z,10.1
2017-06-05T04:00:03.407Z,10.0
2017-06-05T04:05:02.739Z,10.0
2017-06-05T04:10:03.219Z,10.1
2017-06-05T04:15:02.644Z,10.1
2017-06-05T04:20:02.995Z,10.5
2017-06-05T04:25:02.404Z,10.6
2017-06-05T04:30:02.789Z,10.8
2017-06-05T04:35:03.214Z,10.8
2017-06-05T04:40:02.693Z,10.8
2017-06-05T04:45:03.156Z,10.8
2017-06-05T04:50:02.471Z,11.0
2017-06-05T04:55:02.864Z,11.1
2017-06-05T05:00:03.228Z,11.3
2017-06-05T05:05:02.584Z,11.8
2017-06-05T05:10:02.976Z,12.1
2017-06-05T05:15:02.288Z,12.1
2017-06-05T05:20:02.691Z,12.5
2017-06-05T05:25:03.075Z,12.6
2017-06-05T05:30:02.531Z,12.8
2017-06-05T05:35:02.971Z,13.1
2017-06-05T05:40:02.376Z,13.5
2017-06-05T05:45:02.688Z,13.6
2017-06-05T05:50:03.060Z,13.6
2017-06-05T05:55:02.438Z,13.6
2017-06-05T06:00:02.888Z,13.6
2017-06-05T06:05:03.227Z,14.0
2017-06-05T06:10:02.662Z,14.0
2017-06-05T06:15:03.049Z,14.3
2017-06-05T06:20:02.420Z,14.5
2017-06-05T06:25:02.722Z,15.0
2017-06-05T06:30:03.034Z,15.5
2017-06-05T06:35:02.322Z,15.8
2017-06-05T06:40:02.717Z,16.0
2017-06-05T06:45:03.121Z,15.8
2017-06-05T06:50:02.508Z,16.0
2017-06-05T06:55:02.868Z,16.0
2017-06-05T07:00:03.163Z,15.8
2017-06-05T07:05:02.566Z,16.0
2017-06-05T07:10:02.906Z,16.2
2017-06-05T07:15:03.198Z,16.6
2017-06-05T07:20:02.559Z,16.6
2017-06-05T07:25:02.891Z,16.2
2017-06-05T07:30:03.342Z,16.3
2017-06-05T07:35:02.727Z,16.3
2017-06-05T07:40:03.043Z,16.6
2017-06-05T07:45:02.425Z,17.1
2017-06-05T07:50:02.816Z,17.5
2017-06-05T07:55:03.167Z,17.7
2017-06-05T08:00:02.519Z,17.7
2017-06-05T08:05:02.977Z,18.2
2017-06-05T08:10:02.421Z,18.2
2017-06-05T08:15:02.877Z,18.1
2017-06-05T08:20:03.223Z,19.0
2017-06-05T08:30:03.093Z,18.7
2017-06-05T08:35:02.431Z,19.0
2017-06-05T08:40:02.815Z,19.3
2017-06-05T08:45:03.229Z,20.1
2017-06-05T08:50:02.568Z,20.2
2017-06-05T08:55:03.020Z,20.2
2017-06-05T09:00:02.436Z,20.6
2017-06-05T09:05:02.841Z,20.3
2017-06-05T09:10:02.308Z,20.6
2017-06-05T09:15:02.733Z,20.3
2017-06-05T09:20:03.109Z,20.3
2017-06-05T09:25:02.505Z,22.7
2017-06-05T09:30:02.870Z,21.7
2017-06-05T09:35:03.168Z,20.8
2017-06-05T09:40:02.610Z,20.7
2017-06-05T09:45:03.058Z,20.7
2017-06-05T09:50:02.375Z,20.7
2017-06-05T09:55:02.796Z,21.0
2017-06-05T10:00:03.207Z,20.7
2017-06-05T10:05:02.523Z,21.3
2017-06-05T10:10:02.968Z,21.6
2017-06-05T10:15:02.341Z,21.6
2017-06-05T10:20:02.678Z,22.2
2017-06-05T10:25:03.147Z,23.1
2017-06-05T10:35:02.559Z,22.5
2017-06-05T10:40:02.290Z,23.1
2017-06-05T10:45:02.642Z,22.6
2017-06-05T10:50:02.996Z,23.1
2017-06-05T10:55:02.301Z,21.7
2017-06-05T11:00:02.655Z,21.3
2017-06-05T11:05:03.034Z,20.8
2017-06-05T11:10:02.809Z,22.6
2017-06-05T11:15:03.269Z,21.6
2017-06-05T11:20:02.660Z,23.0
2017-06-05T11:25:03.024Z,23.7
2017-06-05T11:30:02.755Z,23.1
2017-06-05T11:35:03.263Z,23.2
2017-06-05T11:40:02.851Z,22.0
2017-06-05T11:45:02.562Z,21.8
2017-06-05T11:50:03.184Z,21.6
2017-06-05T11:55:02.790Z,23.7
2017-06-05T12:00:03.020Z,21.7
2017-06-05T12:05:02.461Z,24.3
2017-06-05T12:10:03.234Z,23.1
2017-06-05T12:15:02.425Z,22.3
2017-06-05T12:20:03.053Z,22.0
2017-06-05T12:25:02.990Z,23.7
2017-06-05T12:30:03.011Z,23.0
2017-06-05T12:35:03.009Z,24.3
2017-06-05T12:40:02.597Z,22.5
2017-06-05T12:45:02.642Z,22.3
2017-06-05T12:50:02.688Z,21.8
2017-06-05T12:55:02.379Z,21.8
2017-06-05T13:00:02.330Z,22.5
2017-06-05T13:05:02.953Z,21.8
2017-06-05T13:10:03.013Z,21.8
2017-06-05T13:15:02.759Z,22.1
2017-06-05T13:20:03.053Z,22.1
2017-06-05T13:25:03.067Z,22.2
2017-06-05T13:30:03.004Z,23.1
2017-06-05T13:35:02.716Z,22.6
2017-06-05T13:40:03.012Z,22.5
2017-06-05T13:45:03.159Z,21.5
2017-06-05T13:50:02.789Z,21.7
2017-06-05T13:55:03.139Z,21.8
2017-06-05T14:00:02.463Z,22.5
2017-06-05T14:05:02.277Z,23.7
2017-06-05T14:10:02.623Z,22.0
2017-06-05T14:15:03.239Z,22.3
2017-06-05T14:20:02.297Z,23.3
2017-06-05T14:25:03.074Z,23.2
2017-06-05T14:30:03.008Z,22.6
2017-06-05T14:35:02.992Z,22.6
2017-06-05T14:40:02.385Z,23.0
2017-06-05T14:45:02.556Z,22.7
2017-06-05T14:50:02.613Z,23.0
2017-06-05T14:55:02.337Z,23.2
2017-06-05T15:00:03.123Z,23.6
2017-06-05T15:05:02.609Z,23.8
2017-06-05T15:10:02.974Z,24.2
2017-06-05T15:15:02.939Z,24.8
2017-06-05T15:20:02.759Z,24.6
2017-06-05T15:25:02.927Z,24.8
2017-06-05T15:30:03.152Z,25.1
2017-06-05T15:35:02.397Z,24.8
2017-06-05T15:40:02.680Z,25.0
2017-06-05T15:45:02.804Z,24.3
2017-06-05T15:50:02.354Z,23.6
2017-06-05T15:55:03.216Z,23.2
2017-06-05T16:00:02.424Z,22.5
2017-06-05T16:05:03.119Z,23.1
2017-06-05T16:10:03.085Z,24.8
2017-06-05T16:15:02.887Z,23.6
2017-06-05T16:20:02.517Z,23.0
2017-06-05T16:25:03.021Z,23.2
2017-06-05T16:30:02.481Z,24.5
2017-06-05T16:35:02.906Z,23.7
2017-06-05T16:40:02.272Z,22.7
2017-06-05T16:45:02.687Z,23.3
2017-06-05T16:50:03.179Z,23.0
2017-06-05T16:55:02.605Z,24.2
2017-06-05T17:00:03.002Z,22.5
2017-06-05T17:05:02.354Z,22.2
2017-06-05T17:10:02.734Z,22.1
2017-06-05T17:15:03.237Z,22.0
2017-06-05T17:20:02.567Z,22.0
2017-06-05T17:25:02.865Z,23.2
2017-06-05T17:30:03.171Z,22.6
2017-06-05T17:35:02.472Z,24.0
2017-06-05T17:40:02.997Z,23.1
2017-06-05T17:45:02.512Z,22.6
2017-06-05T17:50:02.880Z,22.1
2017-06-05T17:55:03.247Z,21.6
2017-06-05T18:00:02.725Z,21.5
2017-06-05T18:05:03.162Z,21.7
2017-06-05T18:10:02.652Z,21.6
2017-06-05T18:15:02.973Z,21.6
2017-06-05T18:20:02.433Z,21.2
2017-06-05T18:25:03.152Z,21.0
2017-06-05T18:30:02.617Z,20.8
2017-06-05T18:35:02.337Z,22.2
2017-06-05T18:40:03.197Z,23.1
2017-06-05T18:45:02.983Z,22.1
2017-06-05T18:50:02.869Z,21.8
2017-06-05T18:55:02.695Z,21.5
2017-06-05T19:00:02.966Z,20.7
2017-06-05T19:05:02.666Z,20.3
2017-06-05T19:10:02.286Z,20.2
2017-06-05T19:15:02.570Z,20.2
2017-06-05T19:20:02.616Z,20.1
2017-06-05T19:25:03.202Z,19.7
2017-06-05T19:30:02.489Z,19.7
2017-06-05T19:35:02.340Z,19.3
2017-06-05T19:40:03.231Z,19.1
2017-06-05T19:45:02.714Z,19.1
2017-06-05T19:50:02.602Z,19.2
2017-06-05T19:55:03.222Z,19.0
2017-06-05T20:00:03.206Z,18.8
2017-06-05T20:05:03.106Z,18.7
2017-06-05T20:10:02.815Z,18.7
2017-06-05T20:15:02.780Z,18.6
2017-06-05T20:20:02.736Z,18.5
2017-06-05T20:25:02.877Z,18.2
2017-06-05T20:30:02.835Z,18.5
2017-06-05T20:35:03.220Z,18.2
2017-06-05T20:40:02.733Z,18.1
2017-06-05T20:45:02.460Z,18.2
2017-06-05T20:50:02.908Z,18.2
2017-06-05T20:55:02.804Z,18.1
2017-06-05T21:00:02.910Z,18.1
2017-06-05T21:05:02.929Z,18.1
2017-06-05T21:10:02.737Z,18.1
2017-06-05T21:15:03.298Z,17.8
2017-06-05T21:20:02.367Z,17.7
2017-06-05T21:25:03.163Z,17.7
2017-06-05T21:30:02.675Z,17.7
2017-06-05T21:35:02.313Z,17.7
2017-06-05T21:40:02.794Z,17.3
2017-06-05T21:45:02.244Z,17.7
2017-06-05T21:50:02.662Z,17.2
2017-06-05T21:55:03.130Z,17.2
2017-06-05T22:00:02.474Z,17.3
2017-06-05T22:05:02.896Z,17.1
2017-06-05T22:10:02.272Z,17.0
2017-06-05T22:15:02.753Z,17.1
2017-06-05T22:20:03.085Z,17.1
2017-06-05T22:25:02.429Z,17.0
2017-06-05T22:30:02.877Z,17.1
2017-06-05T22:35:02.346Z,17.1
2017-06-05T22:40:02.840Z,17.1
2017-06-05T22:45:03.160Z,16.7
2017-06-05T22:50:02.554Z,16.6
2017-06-05T22:55:02.924Z,16.2
2017-06-05T23:00:02.414Z,16.2
2017-06-05T23:05:02.732Z,16.2
2017-06-05T23:10:02.240Z,16.2
2017-06-05T23:15:02.666Z,16.2
2017-06-05T23:20:03.167Z,16.3
2017-06-05T23:25:02.483Z,16.3
2017-06-05T23:30:02.846Z,16.2
2017-06-05T23:35:02.262Z,16.0
2017-06-05T23:40:02.707Z,16.0
2017-06-05T23:45:03.091Z,15.8
2017-06-05T23:50:02.449Z,15.8
2017-06-05T23:55:02.855Z,15.8
